Time;durP1;ratioP1;P1;durP2;ratioP2;P2;SDS_P1;SDS_P2;PMS_P1;PMS_P2;Temp;Humidity;BMP_temperature;BMP_pressure;BME280_temperature;BME280_humidity;BME280_pressure;Samples;Min_cycle;Max_cycle;Signal;HPM_P1;HPM_P2
2022/02/04 00:21:27;;;;;;;;;;;;;;;17.89;58.01;101524.47;5089108;28;1677;-33
2022/02/04 00:23:54;;;;;;;;;;;;;;;17.92;58.14;101546.63;5091771;28;1901;-35
2022/02/04 00:26:24;;;;;;;;;;;;;;;17.96;58.13;101542.78;5089687;28;1791;-33
2022/02/04 00:28:59;;;;;;;;;;;;;;;17.89;58.68;101545.03;5089611;28;1455;-34
2022/02/04 00:31:32;;;;;;;;;;;;;;;17.89;58.36;101540.53;5087138;28;1631;-33
2022/02/04 00:34:05;;;;;;;;;;;;;;;17.82;58.39;101530.34;5085945;28;2412;-33
2022/02/04 00:36:39;;;;;;;;;;;;;;;17.83;58.00;101540.97;5093315;28;1459;-33
2022/02/04 00:39:10;;;;;;;;;;;;;;;17.87;58.55;101544.28;5092330;28;1392;-33
2022/02/04 00:41:38;;;;;;;;;;;;;;;17.82;58.33;101539.22;5090761;28;1993;-33
2022/02/04 00:44:06;;;;;;;;;;;;;;;17.80;58.15;101543.81;5086908;28;1415;-33
2022/02/04 00:46:40;;;;;;;;;;;;;;;17.83;58.14;101538.31;5090656;28;1611;-33
2022/02/04 00:49:13;;;;;;;;;;;;;;;17.77;58.20;101528.00;5092284;28;1396;-33
2022/02/04 00:51:48;;;;;;;;;;;;;;;17.81;58.10;101534.84;5089547;28;1548;-33
2022/02/04 00:54:23;;;;;;;;;;;;;;;17.84;58.09;101540.00;5086798;28;1261;-33
2022/02/04 00:57:07;;;;;;;;;;;;;;;17.80;57.88;101538.47;5089393;28;1666;-34
2022/02/04 01:13:26;;;;;;;;;;;;;;;18.68;55.26;101535.69;5088466;28;1563;-33
2022/02/04 01:26:53;;;;;;;;;;;;;;;18.96;55.17;101533.66;5090321;28;1633;-33
2022/02/04 01:29:20;;;;;;;;;;;;;;;18.87;55.39;101535.19;5087841;28;1314;-33
2022/02/04 01:31:48;;;;;;;;;;;;;;;18.80;55.14;101535.75;5088695;28;1342;-33
2022/02/04 01:34:14;;;;;;;;;;;;;;;18.72;55.70;101530.09;5091726;28;1526;-33
2022/02/04 01:36:42;;;;;;;;;;;;;;;18.62;55.77;101525.44;5086522;28;1432;-34
2022/02/04 01:39:09;;;;;;;;;;;;;;;18.51;56.03;101517.34;5092271;28;1471;-33
2022/02/04 01:41:35;;;;;;;;;;;;;;;18.51;55.53;101543.28;5090125;28;2039;-34
2022/02/04 01:44:02;;;;;;;;;;;;;;;18.49;55.66;101546.06;5082373;28;1984;-34
2022/02/04 01:46:29;;;;;;;;;;;;;;;18.43;55.62;101541.16;5090454;28;1695;-33
2022/02/04 01:48:55;;;;;;;;;;;;;;;18.37;55.81;101537.09;5089750;28;1883;-33
2022/02/04 01:51:22;;;;;;;;;;;;;;;18.32;55.94;101536.56;5084635;28;1447;-34
2022/02/04 01:53:49;;;;;;;;;;;;;;;18.26;55.88;101545.94;5092178;28;1346;-33
2022/02/04 01:56:16;;;;;;;;;;;;;;;18.27;55.86;101547.63;5090360;28;1565;-33
2022/02/04 01:58:43;;;;;;;;;;;;;;;18.18;55.42;101539.41;5089827;28;1397;-34
2022/02/04 02:01:10;;;;;;;;;;;;;;;18.19;55.50;101558.03;5089990;28;1503;-33
2022/02/04 02:03:36;;;;;;;;;;;;;;;18.13;54.59;101541.56;5090504;28;1951;-33
2022/02/04 02:06:08;;;;;;;;;;;;;;;18.12;54.90;101556.75;5084198;28;1542;-33
2022/02/04 02:08:34;;;;;;;;;;;;;;;18.10;55.61;101558.69;5089020;28;1266;-33
2022/02/04 02:11:02;;;;;;;;;;;;;;;18.08;55.90;101557.94;5087996;28;1446;-33
2022/02/04 02:13:32;;;;;;;;;;;;;;;18.02;55.96;101564.59;5090726;28;1674;-33
2022/02/04 02:16:11;;;;;;;;;;;;;;;18.01;56.10;101559.38;5090836;28;1555;-34
2022/02/04 02:35:46;;;;;;;;;;;;;;;17.83;56.40;101558.81;5058611;28;1468;-33
2022/02/04 02:44:13;;;;;;;;;;;;;;;17.92;56.11;101565.38;5071538;28;1914;-34
2022/02/04 02:46:52;;;;;;;;;;;;;;;17.91;56.25;101569.88;5091033;28;1439;-33
2022/02/04 02:49:38;;;;;;;;;;;;;;;17.84;56.25;101558.72;5087612;28;1639;-33
2022/02/04 02:52:16;;;;;;;;;;;;;;;17.90;55.93;101573.50;5088478;28;1478;-33
2022/02/04 03:02:46;;;;;;;;;;;;;;;17.80;56.42;101569.72;5078140;22;2939;-32
2022/02/04 03:05:13;;;;;;;;;;;;;;;17.69;56.30;101567.81;5061207;28;1407;-32
2022/02/04 03:07:39;;;;;;;;;;;;;;;17.64;56.68;101568.13;5066917;28;1291;-31
2022/02/04 03:10:07;;;;;;;;;;;;;;;17.63;56.92;101562.91;5056954;28;1421;-30
2022/02/04 03:12:34;;;;;;;;;;;;;;;17.59;56.62;101558.72;5058154;28;1308;-30
2022/02/04 03:15:00;;;;;;;;;;;;;;;17.67;56.72;101573.28;5062531;28;1528;-31
2022/02/04 03:17:27;;;;;;;;;;;;;;;17.70;56.74;101569.50;5060530;28;1146;-31
2022/02/04 03:19:58;;;;;;;;;;;;;;;17.73;56.07;101574.66;5062787;28;1662;-30
2022/02/04 03:22:24;;;;;;;;;;;;;;;17.71;56.30;101555.19;5054637;28;1913;-30
2022/02/04 03:24:57;;;;;;;;;;;;;;;17.69;56.61;101573.16;5052992;28;1566;-30
2022/02/04 03:27:33;;;;;;;;;;;;;;;17.68;55.74;101550.03;5064754;28;1435;-30
2022/02/04 03:30:05;;;;;;;;;;;;;;;17.68;56.38;101566.09;5066985;28;1585;-31
2022/02/04 03:32:32;;;;;;;;;;;;;;;17.68;56.54;101553.56;5069773;28;1574;-31
2022/02/04 03:34:59;;;;;;;;;;;;;;;17.88;55.73;101562.03;5067896;28;1741;-30
2022/02/04 03:37:25;;;;;;;;;;;;;;;18.27;54.39;101560.16;5064146;28;1400;-30
2022/02/04 03:39:52;;;;;;;;;;;;;;;18.50;54.18;101553.09;5058357;28;1565;-31
2022/02/04 03:42:18;;;;;;;;;;;;;;;18.68;54.21;101559.81;5068423;28;1576;-31
2022/02/04 03:44:46;;;;;;;;;;;;;;;18.85;53.89;101545.16;5064270;28;1975;-30
2022/02/04 03:47:12;;;;;;;;;;;;;;;18.94;53.21;101559.72;5064766;28;1529;-30
2022/02/04 03:49:39;;;;;;;;;;;;;;;19.09;53.07;101557.69;5067728;28;1553;-31
2022/02/04 03:52:05;;;;;;;;;;;;;;;19.24;52.16;101556.50;5065011;28;1397;-30
2022/02/04 03:54:32;;;;;;;;;;;;;;;19.24;52.00;101544.94;5063489;28;1335;-30
2022/02/04 03:56:58;;;;;;;;;;;;;;;19.01;53.44;101544.84;5065140;28;1605;-31
2022/02/04 03:59:26;;;;;;;;;;;;;;;18.90;53.85;101547.50;5061185;28;1314;-30
2022/02/04 04:01:54;;;;;;;;;;;;;;;18.78;53.89;101554.63;5060195;28;1634;-30
2022/02/04 04:04:25;;;;;;;;;;;;;;;18.68;53.91;101559.81;5064391;28;1906;-31
2022/02/04 04:06:52;;;;;;;;;;;;;;;18.60;54.67;101554.16;5058354;28;1261;-31
2022/02/04 04:09:18;;;;;;;;;;;;;;;18.52;54.58;101551.16;5059497;28;1269;-30
2022/02/04 04:11:47;;;;;;;;;;;;;;;18.43;53.83;101560.75;5063651;28;1595;-30
2022/02/04 04:14:16;;;;;;;;;;;;;;;18.37;54.66;101569.22;5062435;28;1650;-30
2022/02/04 04:16:42;;;;;;;;;;;;;;;18.29;54.45;101548.38;5060854;28;1348;-30
2022/02/04 04:19:10;;;;;;;;;;;;;;;18.25;54.43;101544.19;5058606;28;1299;-32
2022/02/04 04:21:37;;;;;;;;;;;;;;;18.19;54.19;101538.44;5058116;28;2188;-31
2022/02/04 04:24:03;;;;;;;;;;;;;;;18.10;54.63;101547.97;5060927;28;1906;-30
2022/02/04 04:26:30;;;;;;;;;;;;;;;18.08;54.71;101561.50;5064921;28;1590;-31
2022/02/04 04:28:56;;;;;;;;;;;;;;;18.07;54.80;101562.44;5063544;28;1579;-31
2022/02/04 04:31:22;;;;;;;;;;;;;;;17.99;54.63;101545.25;5060084;28;1355;-30
2022/02/04 04:33:49;;;;;;;;;;;;;;;17.98;54.93;101557.75;5059457;28;1412;-30
2022/02/04 04:36:18;;;;;;;;;;;;;;;18.00;53.85;101560.31;5059621;28;1600;-30
2022/02/04 04:38:49;;;;;;;;;;;;;;;17.96;54.07;101561.50;5058761;28;1268;-31
2022/02/04 04:41:27;;;;;;;;;;;;;;;17.94;54.10;101542.03;5060718;28;1487;-30
2022/02/04 05:31:00;;;;;;;;;;;;;;;19.53;51.56;101566.81;5011252;28;2278;-30
2022/02/04 05:33:37;;;;;;;;;;;;;;;19.59;51.16;101573.53;5011831;28;1593;-31
2022/02/04 05:36:08;;;;;;;;;;;;;;;19.64;52.21;101566.81;5011510;28;1540;-30
2022/02/04 05:38:36;;;;;;;;;;;;;;;19.61;51.53;101556.31;5011389;28;1574;-30
2022/02/04 05:41:06;;;;;;;;;;;;;;;19.64;54.62;101563.31;5010646;28;1415;-30
2022/02/04 05:43:48;;;;;;;;;;;;;;;19.56;53.27;101541.59;5012370;28;1985;-30
2022/02/04 05:46:19;;;;;;;;;;;;;;;19.44;52.33;101572.91;5010543;28;1327;-31
2022/02/04 05:48:53;;;;;;;;;;;;;;;19.39;53.04;101572.38;5010799;28;1473;-30
2022/02/04 05:51:37;;;;;;;;;;;;;;;19.31;53.55;101577.50;5008973;28;1523;-30
2022/02/04 05:54:12;;;;;;;;;;;;;;;19.17;53.34;101573.19;5012343;28;1170;-30
2022/02/04 05:56:49;;;;;;;;;;;;;;;19.05;53.68;101575.81;5009156;28;1654;-30
2022/02/04 05:59:26;;;;;;;;;;;;;;;19.05;52.99;101581.19;5010374;28;1409;-30
2022/02/04 06:02:11;;;;;;;;;;;;;;;18.98;53.99;101579.94;5007642;28;1529;-30
2022/02/04 06:04:54;;;;;;;;;;;;;;;18.91;53.58;101569.81;5013730;28;1906;-31
2022/02/04 06:08:03;;;;;;;;;;;;;;;18.87;53.23;101583.41;5012225;28;1862;-31
2022/02/04 06:10:52;;;;;;;;;;;;;;;18.86;54.06;101581.72;5009151;28;1588;-31
2022/02/04 06:13:34;;;;;;;;;;;;;;;18.82;53.83;101590.09;5001090;28;1870;-31
2022/02/04 06:24:26;;;;;;;;;;;;;;;18.79;53.87;101585.81;4927563;29;1968;-30
2022/02/04 06:26:55;;;;;;;;;;;;;;;18.83;53.29;101597.16;4973570;28;1773;-31
2022/02/04 06:29:23;;;;;;;;;;;;;;;18.89;53.11;101607.44;5006601;28;1777;-31
2022/02/04 06:31:50;;;;;;;;;;;;;;;18.91;53.41;101613.53;5004808;28;1950;-31
2022/02/04 06:34:16;;;;;;;;;;;;;;;18.92;53.30;101615.25;5006502;28;1688;-31
2022/02/04 06:36:43;;;;;;;;;;;;;;;18.87;53.65;101595.97;5007185;28;1635;-30
2022/02/04 06:39:09;;;;;;;;;;;;;;;18.89;52.90;101602.06;4999043;28;1155;-31
2022/02/04 06:41:36;;;;;;;;;;;;;;;18.89;53.33;101602.06;5000524;28;1998;-30
2022/02/04 06:44:02;;;;;;;;;;;;;;;18.92;53.77;101607.22;5006404;28;1906;-31
2022/02/04 06:46:30;;;;;;;;;;;;;;;18.93;53.33;101614.28;5007525;28;1481;-30
2022/02/04 06:48:57;;;;;;;;;;;;;;;18.89;53.66;101599.38;5003324;28;1825;-30
2022/02/04 06:51:23;;;;;;;;;;;;;;;18.90;52.88;101586.84;5006040;28;1650;-31
2022/02/04 06:53:50;;;;;;;;;;;;;;;18.90;53.80;101592.19;5005794;28;1100;-30
2022/02/04 06:56:16;;;;;;;;;;;;;;;18.92;52.87;101606.34;5004956;28;1759;-30
2022/02/04 06:58:43;;;;;;;;;;;;;;;18.90;53.60;101600.25;5003885;28;1753;-31
2022/02/04 07:01:10;;;;;;;;;;;;;;;18.92;52.93;101617.06;5002345;28;1606;-30
2022/02/04 07:03:37;;;;;;;;;;;;;;;18.90;53.38;101603.78;5004129;28;1914;-30
2022/02/04 07:06:05;;;;;;;;;;;;;;;18.87;53.21;101601.34;5005360;28;1678;-30
2022/02/04 07:08:38;;;;;;;;;;;;;;;18.89;53.24;101591.34;5008524;28;1084;-30
2022/02/04 07:11:20;;;;;;;;;;;;;;;18.91;52.97;101604.66;5011162;28;1685;-30
2022/02/04 07:14:02;;;;;;;;;;;;;;;18.98;53.45;101606.75;5007626;28;1669;-30
2022/02/04 07:16:34;;;;;;;;;;;;;;;19.15;52.93;101608.16;5011021;28;1690;-31
2022/02/04 07:21:46;;;;;;;;;;;;;;;19.20;53.18;101615.84;5011345;28;1447;-31
2022/02/04 07:24:12;;;;;;;;;;;;;;;19.20;54.19;101613.16;5016835;28;1914;-30
2022/02/04 07:26:38;;;;;;;;;;;;;;;19.17;53.23;101606.19;5006972;28;1617;-30
2022/02/04 07:29:05;;;;;;;;;;;;;;;19.16;54.21;101599.16;5010831;28;1786;-30
2022/02/04 07:31:36;;;;;;;;;;;;;;;19.21;53.90;101607.69;5006805;28;1467;-30
2022/02/04 07:34:18;;;;;;;;;;;;;;;19.23;54.17;101615.63;5010508;28;1407;-30
2022/02/04 07:42:12;;;;;;;;;;;;;;;19.38;54.14;101619.81;5008001;28;818;-29
2022/02/04 07:44:38;;;;;;;;;;;;;;;19.37;53.97;101623.47;5008095;28;1902;-29
2022/02/04 07:47:05;;;;;;;;;;;;;;;19.30;54.14;101613.31;5003034;28;1608;-31
2022/02/04 07:49:33;;;;;;;;;;;;;;;19.17;53.95;101600.84;5007547;28;2081;-30
2022/02/04 07:51:59;;;;;;;;;;;;;;;19.35;53.44;101609.31;5013270;28;1465;-30
2022/02/04 07:54:25;;;;;;;;;;;;;;;19.26;53.74;101612.72;4999737;28;1096;-30
2022/02/04 07:56:52;;;;;;;;;;;;;;;19.16;53.99;101611.69;5012032;28;1946;-30
2022/02/04 07:59:18;;;;;;;;;;;;;;;19.24;54.20;101602.09;5011904;28;1944;-32
2022/02/04 08:01:46;;;;;;;;;;;;;;;19.15;54.68;101597.41;5013946;28;1785;-31
2022/02/04 08:04:17;;;;;;;;;;;;;;;19.16;54.20;101603.63;5012355;28;1993;-31
2022/02/04 08:06:51;;;;;;;;;;;;;;;19.26;54.17;101600.16;5010011;28;1453;-31
2022/02/04 08:09:25;;;;;;;;;;;;;;;19.31;53.49;101602.47;5016273;28;1935;-32
2022/02/04 08:12:10;;;;;;;;;;;;;;;19.37;54.54;101591.28;5010182;28;1761;-31
2022/02/04 08:14:54;;;;;;;;;;;;;;;19.45;53.15;101583.50;5008806;28;1917;-31
2022/02/04 08:20:35;;;;;;;;;;;;;;;19.46;54.07;101598.63;5004269;28;2796;-31
2022/02/04 08:26:14;;;;;;;;;;;;;;;19.42;54.20;101589.09;5009768;28;1906;-31
2022/02/04 08:29:10;;;;;;;;;;;;;;;19.50;53.62;101587.63;5009078;28;1679;-31
2022/02/04 08:31:48;;;;;;;;;;;;;;;19.30;54.13;101586.50;5008976;28;1874;-31
2022/02/04 08:51:19;;;;;;;;;;;;;;;19.08;50.43;101569.38;5006822;28;1631;-31
2022/02/04 08:56:48;;;;;;;;;;;;;;;19.08;49.95;101564.03;5001305;28;1651;-30
2022/02/04 08:59:22;;;;;;;;;;;;;;;19.02;50.52;101565.34;5004918;28;1622;-30
2022/02/04 09:01:55;;;;;;;;;;;;;;;18.81;51.93;101562.44;5000950;28;1776;-31
2022/02/04 09:04:30;;;;;;;;;;;;;;;18.74;50.03;101571.91;5008308;28;1910;-31
2022/02/04 09:07:03;;;;;;;;;;;;;;;18.73;50.03;101580.03;5005194;28;1766;-30
2022/02/04 09:09:46;;;;;;;;;;;;;;;18.70;49.73;101570.38;4998114;28;1012;-30
2022/02/04 09:16:50;;;;;;;;;;;;;;;18.75;49.39;101578.09;5006521;28;1067;-30
2022/02/04 09:21:09;;;;;;;;;;;;;;;18.61;47.38;101561.22;5008723;28;2705;-32
2022/02/04 09:23:35;;;;;;;;;;;;;;;18.63;47.82;101548.56;5012390;28;1925;-30
2022/02/04 09:26:07;;;;;;;;;;;;;;;18.61;47.43;101563.91;5011795;28;1993;-31
2022/02/04 09:28:35;;;;;;;;;;;;;;;18.51;47.25;101554.84;5008927;28;1810;-30
2022/02/04 09:31:02;;;;;;;;;;;;;;;18.49;47.30;101554.94;5006699;28;1656;-31
2022/02/04 09:33:28;;;;;;;;;;;;;;;18.53;46.20;101547.53;5001876;28;1807;-31
2022/02/04 09:35:54;;;;;;;;;;;;;;;18.58;45.56;101547.19;5006283;28;1795;-31
2022/02/04 09:38:21;;;;;;;;;;;;;;;18.83;45.62;101554.28;5003937;28;1012;-31
2022/02/04 09:40:47;;;;;;;;;;;;;;;19.29;47.17;101540.06;4998704;28;1761;-31
2022/02/04 09:43:14;;;;;;;;;;;;;;;19.62;47.55;101541.94;5004413;28;1614;-30
2022/02/04 09:45:42;;;;;;;;;;;;;;;19.57;48.49;101529.88;5005862;28;1985;-31
2022/02/04 09:48:20;;;;;;;;;;;;;;;19.54;49.18;101533.66;5014005;28;1760;-31
2022/02/04 09:50:50;;;;;;;;;;;;;;;19.51;49.16;101527.66;5000114;28;1757;-32
2022/02/04 10:07:22;;;;;;;;;;;;;;;19.76;51.20;101522.09;5005706;28;1514;-31
2022/02/04 10:12:57;;;;;;;;;;;;;;;19.73;51.94;101522.34;5007382;28;2616;-31
2022/02/04 10:15:34;;;;;;;;;;;;;;;19.70;50.98;101503.78;5012448;28;1580;-31
2022/02/04 10:18:07;;;;;;;;;;;;;;;19.71;51.67;101496.56;5009484;28;1379;-31
2022/02/04 10:20:35;;;;;;;;;;;;;;;19.55;52.61;101510.34;5003131;28;1085;-31
2022/02/04 10:23:04;;;;;;;;;;;;;;;19.49;52.55;101509.00;5009695;28;1840;-31
2022/02/04 10:25:32;;;;;;;;;;;;;;;19.53;52.85;101502.41;4996509;28;1902;-31
2022/02/04 10:28:03;;;;;;;;;;;;;;;19.47;52.46;101495.69;5010448;28;1488;-31
2022/02/04 10:30:32;;;;;;;;;;;;;;;19.50;52.89;101489.25;5005586;28;1539;-31
2022/02/04 10:33:00;;;;;;;;;;;;;;;19.50;51.88;101496.44;5006769;28;1739;-31
2022/02/04 10:35:33;;;;;;;;;;;;;;;19.42;53.06;101492.53;5003869;28;1598;-31
2022/02/04 10:38:09;;;;;;;;;;;;;;;19.44;53.09;101485.22;5007219;28;1059;-31
2022/02/04 10:40:53;;;;;;;;;;;;;;;19.53;52.91;101490.84;5006423;28;1562;-31
2022/02/04 10:43:38;;;;;;;;;;;;;;;19.72;53.04;101488.44;5009853;28;1736;-31
2022/02/04 10:46:15;;;;;;;;;;;;;;;19.74;52.96;101480.28;5012682;28;1971;-31
2022/02/04 11:00:24;;;;;;;;;;;;;;;19.67;52.68;101463.75;4987617;28;1566;-31
2022/02/04 11:02:58;;;;;;;;;;;;;;;19.66;53.09;101456.69;4999425;28;1491;-31
2022/02/04 11:05:44;;;;;;;;;;;;;;;19.66;52.64;101454.03;5012088;28;1906;-31
2022/02/04 11:11:42;;;;;;;;;;;;;;;19.63;53.34;101440.84;5001539;28;1483;-31
2022/02/04 11:31:12;;;;;;;;;;;;;;;19.55;52.20;101429.88;5011018;28;1395;-31
2022/02/04 11:51:40;;;;;;;;;;;;;;;19.46;53.05;101416.22;5001833;28;2352;-31
2022/02/04 11:54:40;;;;;;;;;;;;;;;19.47;52.47;101407.19;5037456;28;1430;-30
2022/02/04 11:57:34;;;;;;;;;;;;;;;19.46;53.58;101397.44;4977833;28;1640;-31
2022/02/04 12:03:02;;;;;;;;;;;;;;;19.44;52.79;101399.41;5009394;28;2827;-31
2022/02/04 12:05:35;;;;;;;;;;;;;;;19.44;53.97;101394.03;5010833;28;1906;-31
2022/02/04 12:08:36;;;;;;;;;;;;;;;19.33;53.46;101391.34;5015404;28;1701;-30
2022/02/04 12:11:11;;;;;;;;;;;;;;;18.95;50.85;101402.44;4973835;28;2215;-31
2022/02/04 12:13:59;;;;;;;;;;;;;;;18.84;49.86;101387.16;5014035;28;1756;-30
2022/02/04 12:16:29;;;;;;;;;;;;;;;18.79;48.94;101382.16;5014798;28;1833;-31
2022/02/04 12:19:28;;;;;;;;;;;;;;;18.73;47.64;101387.97;5011932;28;2083;-31
2022/02/04 12:21:57;;;;;;;;;;;;;;;18.67;48.14;101369.69;5004045;28;1630;-31
2022/02/04 12:24:37;;;;;;;;;;;;;;;18.73;47.46;101376.41;5015958;28;1720;-31
2022/02/04 12:27:28;;;;;;;;;;;;;;;18.70;46.14;101369.44;5012813;28;1411;-30
2022/02/04 12:29:57;;;;;;;;;;;;;;;18.58;45.61;101378.44;5015249;28;1533;-32
2022/02/04 12:32:27;;;;;;;;;;;;;;;18.68;46.15;101380.31;5012019;28;1188;-31
2022/02/04 12:34:56;;;;;;;;;;;;;;;18.99;45.71;101375.25;5007857;28;1985;-31
2022/02/04 12:37:24;;;;;;;;;;;;;;;19.48;47.58;101368.66;5003507;28;1185;-33
2022/02/04 12:39:51;;;;;;;;;;;;;;;19.53;47.27;101368.28;5014166;28;1533;-31
2022/02/04 12:42:20;;;;;;;;;;;;;;;19.59;47.17;101353.53;5004719;28;1677;-31
2022/02/04 12:44:47;;;;;;;;;;;;;;;19.64;47.99;101359.38;5012084;28;1911;-31
2022/02/04 12:47:20;;;;;;;;;;;;;;;19.68;48.53;101352.78;5009027;28;1863;-31
2022/02/04 12:49:54;;;;;;;;;;;;;;;19.73;48.83;101358.63;5012538;28;1730;-31
2022/02/04 12:52:30;;;;;;;;;;;;;;;19.76;47.78;101350.34;5012549;28;1583;-30
2022/02/04 12:55:21;;;;;;;;;;;;;;;19.72;51.41;101348.06;5007860;28;2000;-30
2022/02/04 12:58:08;;;;;;;;;;;;;;;19.79;50.34;101347.41;5007375;28;1987;-31
2022/02/04 13:02:00;;;;;;;;;;;;;;;19.63;51.13;101334.34;5004774;28;1733;-31
2022/02/04 13:09:48;;;;;;;;;;;;;;;19.92;49.76;101343.72;5013565;28;1755;-31
2022/02/04 13:12:07;;;;;;;;;;;;;;;19.87;50.11;101349.44;5011480;28;1919;-30
2022/02/04 13:14:35;;;;;;;;;;;;;;;19.71;50.77;101340.94;5003393;28;1936;-30
2022/02/04 13:17:05;;;;;;;;;;;;;;;19.66;50.72;101344.00;5012312;28;1451;-31
2022/02/04 13:19:32;;;;;;;;;;;;;;;19.94;51.54;101336.41;5007696;28;1800;-31
2022/02/04 13:22:05;;;;;;;;;;;;;;;19.57;52.93;101328.66;5013252;28;1905;-31
2022/02/04 13:24:39;;;;;;;;;;;;;;;19.43;53.56;101336.00;5014950;28;1643;-31
2022/02/04 13:27:13;;;;;;;;;;;;;;;19.45;53.21;101326.00;5014286;28;1934;-32
2022/02/04 13:29:42;;;;;;;;;;;;;;;19.37;53.57;101333.81;5008263;28;1819;-32
2022/02/04 13:32:23;;;;;;;;;;;;;;;19.24;53.35;101327.75;5009580;28;1949;-31
2022/02/04 13:34:53;;;;;;;;;;;;;;;19.10;52.51;101327.97;5009797;28;1756;-31
2022/02/04 13:37:31;;;;;;;;;;;;;;;19.13;52.76;101323.22;5008267;28;1787;-31
2022/02/04 13:40:02;;;;;;;;;;;;;;;19.17;53.69;101335.41;5001901;28;1626;-31
2022/02/04 13:42:38;;;;;;;;;;;;;;;19.15;53.27;101323.97;5004151;28;2116;-31
2022/02/04 13:45:24;;;;;;;;;;;;;;;19.14;53.82;101316.91;5003520;28;1911;-31
2022/02/04 13:47:59;;;;;;;;;;;;;;;19.15;53.85;101315.06;5004534;28;1491;-31
2022/02/04 13:50:32;;;;;;;;;;;;;;;19.12;53.54;101313.50;5003435;28;1616;-31
2022/02/04 13:53:14;;;;;;;;;;;;;;;19.07;54.14;101300.44;5003480;28;1578;-31
2022/02/04 13:55:55;;;;;;;;;;;;;;;19.10;52.87;101294.00;5007307;28;1786;-31
2022/02/04 13:58:35;;;;;;;;;;;;;;;19.10;53.54;101295.81;5007913;28;1967;-31
2022/02/04 14:01:08;;;;;;;;;;;;;;;19.02;53.66;101297.28;5002091;28;1580;-31
2022/02/04 14:03:41;;;;;;;;;;;;;;;19.02;54.41;101281.22;5003309;28;1883;-31
2022/02/04 14:06:12;;;;;;;;;;;;;;;19.03;53.49;101300.81;5008341;28;1973;-31
2022/02/04 14:08:49;;;;;;;;;;;;;;;18.99;54.03;101280.59;5004006;28;1072;-31
2022/02/04 14:11:27;;;;;;;;;;;;;;;19.03;53.20;101280.22;5002018;28;1520;-31
2022/02/04 14:13:54;;;;;;;;;;;;;;;18.98;54.00;101282.44;5003189;28;1771;-31
2022/02/04 14:16:21;;;;;;;;;;;;;;;18.97;54.17;101253.91;5003503;28;1379;-31
2022/02/04 14:18:48;;;;;;;;;;;;;;;18.98;54.01;101273.53;5003772;28;1422;-31
2022/02/04 14:21:16;;;;;;;;;;;;;;;18.96;53.45;101279.03;5004801;28;1550;-31
2022/02/04 14:23:46;;;;;;;;;;;;;;;18.91;54.20;101273.16;5004096;28;1030;-31
2022/02/04 14:26:19;;;;;;;;;;;;;;;18.91;53.96;101262.44;5000826;28;1906;-31
2022/02/04 14:28:50;;;;;;;;;;;;;;;18.92;54.20;101253.44;5002937;28;1419;-31
2022/02/04 14:31:23;;;;;;;;;;;;;;;18.88;53.94;101252.00;5003075;28;1510;-31
2022/02/04 14:36:52;;;;;;;;;;;;;;;18.87;53.94;101264.50;5003711;28;1641;-31
2022/02/04 14:53:14;;;;;;;;;;;;;;;18.96;53.85;101240.63;5010075;28;1259;-31
2022/02/04 14:58:45;;;;;;;;;;;;;;;18.94;53.71;101246.13;5002983;28;1606;-31
2022/02/04 15:01:18;;;;;;;;;;;;;;;18.98;53.82;101242.22;5007261;28;1352;-32
2022/02/04 15:03:53;;;;;;;;;;;;;;;18.94;54.25;101246.13;5002476;28;1573;-31
2022/02/04 15:06:27;;;;;;;;;;;;;;;19.06;53.77;101250.50;5005600;28;1977;-32
2022/02/04 15:08:55;;;;;;;;;;;;;;;19.02;54.39;101232.97;5005735;28;1382;-32
2022/02/04 15:11:29;;;;;;;;;;;;;;;19.10;53.46;101250.25;5004970;28;1744;-31
2022/02/04 15:13:55;;;;;;;;;;;;;;;19.23;53.89;101245.59;5007107;28;1701;-31
2022/02/04 15:16:22;;;;;;;;;;;;;;;19.62;53.14;101241.44;5007189;28;1800;-32
2022/02/04 15:18:48;;;;;;;;;;;;;;;19.88;52.24;101237.59;5011514;28;1845;-32
2022/02/04 15:21:17;;;;;;;;;;;;;;;20.13;52.06;101239.03;5002305;28;1751;-31
2022/02/04 15:23:46;;;;;;;;;;;;;;;20.10;52.48;101240.16;5004359;28;1072;-31
2022/02/04 15:26:14;;;;;;;;;;;;;;;20.09;52.74;101242.97;5009217;28;1981;-32
2022/02/04 15:28:45;;;;;;;;;;;;;;;20.13;52.06;101245.25;5010463;28;1354;-32
2022/02/04 15:31:23;;;;;;;;;;;;;;;20.20;52.81;101224.09;5012836;28;1654;-31
2022/02/04 15:33:52;;;;;;;;;;;;;;;20.22;51.91;101257.88;5012412;28;1411;-31
2022/02/04 15:36:27;;;;;;;;;;;;;;;20.18;53.08;101237.66;5009945;28;1704;-31
2022/02/04 15:38:57;;;;;;;;;;;;;;;20.25;51.92;101241.53;5012896;28;1587;-31
2022/02/04 15:41:28;;;;;;;;;;;;;;;20.25;51.65;101236.16;5009433;28;1670;-32
2022/02/04 15:44:02;;;;;;;;;;;;;;;20.19;52.70;101242.06;5003524;28;1470;-32
2022/02/04 15:46:45;;;;;;;;;;;;;;;20.24;52.63;101250.56;5010427;28;1910;-31
2022/02/04 15:54:56;;;;;;;;;;;;;;;20.36;52.77;101245.13;4993630;28;1686;-33
2022/02/04 16:03:13;;;;;;;;;;;;;;;20.35;52.94;101238.91;4982852;28;1532;-32
2022/02/04 16:05:45;;;;;;;;;;;;;;;20.44;53.38;101239.94;5011681;28;2129;-32
2022/02/04 16:08:14;;;;;;;;;;;;;;;20.37;51.92;101250.38;5015253;28;1498;-31
2022/02/04 16:10:54;;;;;;;;;;;;;;;20.48;52.08;101249.41;5015385;28;2009;-33
2022/02/04 16:13:41;;;;;;;;;;;;;;;20.47;53.04;101258.44;5011705;28;1583;-31
2022/02/04 16:16:29;;;;;;;;;;;;;;;20.44;51.96;101237.25;5012315;28;1552;-32
2022/02/04 16:19:06;;;;;;;;;;;;;;;20.43;52.21;101240.91;5014585;28;1377;-31
2022/02/04 16:21:45;;;;;;;;;;;;;;;20.64;52.45;101249.81;5012076;28;1569;-31
2022/02/04 16:24:35;;;;;;;;;;;;;;;20.73;52.38;101255.34;5007781;28;996;-31
2022/02/04 16:28:37;;;;;;;;;;;;;;;20.66;52.37;101250.53;5013419;28;1914;-31
2022/02/04 16:29:59;;;;;;;;;;;;;;;20.73;51.85;101242.78;5013376;28;1512;-32
2022/02/04 16:32:30;;;;;;;;;;;;;;;20.76;51.79;101214.78;5011127;28;1601;-31
2022/02/04 16:35:00;;;;;;;;;;;;;;;20.74;51.77;101238.25;5010580;28;1964;-32
2022/02/04 16:37:31;;;;;;;;;;;;;;;20.75;51.69;101237.25;5007419;28;1671;-32
2022/02/04 16:40:04;;;;;;;;;;;;;;;20.74;52.41;101216.75;5014145;28;1468;-31
2022/02/04 16:42:31;;;;;;;;;;;;;;;21.03;52.18;101228.44;5014577;28;1525;-31
2022/02/04 16:44:57;;;;;;;;;;;;;;;20.69;51.74;101218.97;5013295;28;1437;-31
2022/02/04 16:47:24;;;;;;;;;;;;;;;20.50;53.47;101228.63;5014739;28;2060;-31
2022/02/04 16:49:54;;;;;;;;;;;;;;;20.37;53.78;101219.94;5011305;28;1940;-30
2022/02/04 16:52:23;;;;;;;;;;;;;;;20.35;54.83;101227.28;5013051;28;1729;-31
2022/02/04 16:54:53;;;;;;;;;;;;;;;20.32;54.33;101222.19;5012411;28;1436;-31
2022/02/04 16:57:24;;;;;;;;;;;;;;;20.34;54.18;101230.97;5013487;28;1386;-31
2022/02/04 17:00:00;;;;;;;;;;;;;;;20.16;56.04;101223.50;5014026;28;1330;-31
2022/02/04 17:02:29;;;;;;;;;;;;;;;20.10;55.99;101240.16;5012498;28;1447;-31
2022/02/04 17:05:00;;;;;;;;;;;;;;;20.09;56.57;101230.38;5008459;28;1896;-31
2022/02/04 17:07:27;;;;;;;;;;;;;;;20.18;56.87;101232.28;5007767;28;1910;-31
2022/02/04 17:09:55;;;;;;;;;;;;;;;20.25;57.34;101238.84;5013700;28;1466;-31
2022/02/04 17:12:28;;;;;;;;;;;;;;;20.33;58.59;101234.63;4997099;28;1856;-31
2022/02/04 17:14:55;;;;;;;;;;;;;;;20.10;58.51;101240.16;5006458;28;1040;-32
2022/02/04 17:17:24;;;;;;;;;;;;;;;19.99;61.65;101233.00;5003593;28;1414;-32
2022/02/04 17:20:05;;;;;;;;;;;;;;;19.98;60.51;101230.47;5013205;28;1600;-31
2022/02/04 17:22:47;;;;;;;;;;;;;;;19.93;58.30;101230.84;5010705;28;1618;-31
2022/02/04 17:25:26;;;;;;;;;;;;;;;19.65;59.05;101222.41;5014433;28;1406;-31
2022/02/04 17:27:56;;;;;;;;;;;;;;;19.62;57.83;101219.16;5010269;28;1910;-28
2022/02/04 17:30:25;;;;;;;;;;;;;;;19.61;58.24;101212.06;5005032;28;1625;-32
2022/02/04 17:32:51;;;;;;;;;;;;;;;19.55;57.51;101207.22;5009836;28;1703;-32
2022/02/04 17:35:25;;;;;;;;;;;;;;;19.47;57.31;101210.53;5013182;28;1644;-32
2022/02/04 17:37:55;;;;;;;;;;;;;;;19.50;58.29;101204.94;5013649;28;1350;-32
2022/02/04 17:40:29;;;;;;;;;;;;;;;19.56;57.39;101206.25;5011682;28;1307;-32
2022/02/04 17:42:58;;;;;;;;;;;;;;;19.57;57.75;101213.31;5011773;28;1579;-32
2022/02/04 17:45:25;;;;;;;;;;;;;;;19.51;58.24;101205.75;5012278;28;1659;-32
2022/02/04 17:47:55;;;;;;;;;;;;;;;19.50;58.46;101214.78;5011382;28;1975;-31
2022/02/04 17:50:28;;;;;;;;;;;;;;;19.46;58.95;101211.53;5012135;28;1514;-32
2022/02/04 17:53:02;;;;;;;;;;;;;;;19.46;59.06;101225.78;5013719;28;1342;-31